Home > Products > Valid Products > TAF

000
FTUS46 KSGX 270839 AAA
TAFSAN
TAF AMD
KSAN 270839Z 2709/2812 VRB05KT P6SM FEW015 BKN020
     FM271830 24009KT P6SM SCT025
     FM280300 VRB05KT P6SM BKN015=



000
FTUS46 KSGX 270520
TAFTRM
TAF
KTRM 270520Z 2706/2806 33012G20KT P6SM SKC
     FM271200 32010KT P6SM SKC
     FM272100 14011KT P6SM SKC
     FM280300 33011KT P6SM SKC=



000
FTUS46 KSGX 262323
TAFONT
TAF
KONT 262323Z 2700/2806 25011G18KT P6SM SCT120
     FM270900 VRB05KT P6SM BKN020 BKN035
     FM271600 VRB05KT P6SM SCT020 BKN050
     FM272100 25011KT P6SM FEW250=



000
FTUS46 KSGX 262323
TAFPSP
TAF
KPSP 262323Z 2700/2724 30015G25KT P6SM SCT110
     FM270830 VRB06KT P6SM SKC=



000
FTUS46 KSGX 262323
TAFTRM
TAF
KTRM 262323Z 2700/2724 VRB06KT P6SM SKC
     FM270400 33011KT P6SM SKC
     FM271200 VRB06KT P6SM SKC=



000
FTUS46 KSGX 262323
TAFSNA
TAF
KSNA 262323Z 2700/2724 22011KT P6SM SCT030
     FM270300 VRB05KT P6SM FEW020
     FM270800 VRB05KT P6SM BKN018
     FM271830 22011KT P6SM SCT025=



000
FTUS46 KSGX 262323
TAFCRQ
TAF
KCRQ 262323Z 2700/2724 24009KT P6SM SCT021
     FM270230 VRB05KT P6SM BKN020
     FM271830 24011KT P6SM SCT025=



000
FTUS46 KSGX 262323
TAFSAN
TAF
KSAN 262323Z 2700/2806 26009KT P6SM SCT024 BKN035
      TEMPO 2700/2703 BKN024
     FM270300 VRB05KT P6SM FEW012 BKN020
     FM271700 23009KT P6SM SCT025
     FM280300 VRB05KT P6SM BKN018=



000
FTUS46 KSGX 262013 AAA
TAFSAN
TAF AMD
KSAN 262013Z 2620/2724 26011KT P6SM SCT025
     FM270230 VRB05KT P6SM FEW012 BKN020
     FM271700 22008KT P6SM SCT025=



000
FTUS46 KSGX 261902 AAA
TAFONT
TAF AMD
KONT 261902Z 2619/2724 25007KT P6SM SCT040
     FM262100 25011G18KT P6SM SKC
     FM270800 25007KT P6SM SCT015 BKN035=



000
FTUS46 KSGX 260300 AAA
TAFSAN
TAF AMD
KSAN 260300Z 2603/2706 31007KT P6SM SCT025 SCT035
     FM260600 29008KT P6SM BKN020
     FM262000 26012G18KT P6SM SCT025
     FM270200 VRB05KT P6SM BKN020=



000
FTUS46 KSGX 252338
TAFTRM
TAF
KTRM 252338Z 2600/2624 33015G25KT P6SM SKC
     FM260900 32011KT P6SM SKC
     FM261700 VRB06KT P6SM SKC=



000
FTUS46 KSGX 252338
TAFCRQ
TAF
KCRQ 252338Z 2600/2624 27011G17KT P6SM SCT025 SCT035
     FM260200 VRB05KT P6SM BKN020
     FM261900 25010KT P6SM SCT025=



000
FTUS46 KSGX 252338
TAFSAN
TAF
KSAN 252338Z 2600/2706 29011G17KT P6SM SCT020 SCT035
     FM260330 29008KT P6SM BKN020
     FM262000 26012G18KT P6SM SCT025
     FM270200 VRB05KT P6SM BKN020=



000
FTUS46 KSGX 252338
TAFONT
TAF
KONT 252338Z 2600/2706 25011G18KT P6SM SCT035 BKN060
     FM260600 25008KT P6SM SCT015 BKN040
     FM260900 VRB05KT P6SM BKN020
     FM261800 25011G18KT P6SM SCT035
     FM270500 25007KT P6SM SCT020 SCT035=



000
FTUS46 KSGX 252338
TAFSNA
TAF
KSNA 252338Z 2600/2624 24011G18KT P6SM SCT030 BKN070
     FM260300 VRB05KT P6SM SCT020 SCT035
     FM260500 VRB05KT P6SM BKN020
     FM261900 22011G18KT P6SM SCT025=



000
FTUS46 KSGX 252338
TAFPSP
TAF
KPSP 252338Z 2600/2624 31020G30KT P6SM SCT250
     FM260300 32015G25KT P6SM SCT250
     FM261000 VRB06KT P6SM SKC
     FM262100 31015G25KT P6SM SKC=



000
FTUS46 KSGX 251236 AAA
TAFCRQ
TAF AMD
KCRQ 251236Z 2513/2612 VRB05KT P6SM SCT020
      TEMPO 2514/2518 VRB15KT 6SM -SHRA BKN020
     FM251800 26011G17KT P6SM SCT025 BKN035
     FM260200 18005KT P6SM BKN020=



000
FTUS46 KSGX 251232 AAA
TAFTRM
TAF AMD
KTRM 251232Z 2513/2612 32014G28KT P6SM SKC=



000
FTUS46 KSGX 251230 AAA
TAFPSP
TAF AMD
KPSP 251230Z 2513/2612 33009KT P6SM SCT250
     FM251800 32015G28KT P6SM SCT250
     FM260900 26005KT P6SM SKC=



000
FTUS46 KSGX 242024 AAB
TAFTRM
TAF AMD
KTRM 242024Z 2420/2518 VRB04KT P6SM SKC
     FM242100 30014G22KT P6SM SCT100 SCT200
     FM250300 33018G28KT P6SM SKC
     FM250800 32011KT P6SM SKC=



    US Dept of Commerce
    National Oceanic and Atmospheric Administration
    National Weather Service
    1325 East West Highway
    Silver Spring, MD 20910
    Page Author: NWS Internet Services Team
Disclaimer
Information Quality
Credits
Glossary
Privacy Policy
Freedom of Information Act (FOIA)
About Us
Career Opportunities